createdAt,value
2022-11-10T00:00:52.240Z,9.80
2022-11-10T00:03:19.049Z,9.80
2022-11-10T00:05:45.824Z,9.80
2022-11-10T00:08:12.805Z,9.70
2022-11-10T00:10:56.974Z,9.70
2022-11-10T00:13:32.243Z,9.70
2022-11-10T00:16:20.305Z,9.70
2022-11-10T00:18:47.029Z,9.70
2022-11-10T00:21:15.435Z,9.70
2022-11-10T00:23:42.266Z,9.60
2022-11-10T00:26:17.654Z,9.60
2022-11-10T00:28:44.910Z,9.60
2022-11-10T00:31:11.980Z,9.60
2022-11-10T00:33:40.646Z,9.60
2022-11-10T00:36:07.571Z,9.50
2022-11-10T00:38:34.225Z,9.50
2022-11-10T00:41:01.339Z,9.50
2022-11-10T00:43:29.780Z,9.50
2022-11-10T00:45:56.637Z,9.50
2022-11-10T00:48:23.441Z,9.40
2022-11-10T00:50:50.290Z,9.40
2022-11-10T00:53:17.103Z,9.40
2022-11-10T00:55:43.834Z,9.40
2022-11-10T00:58:10.477Z,9.40
2022-11-10T01:00:37.133Z,9.30
2022-11-10T01:03:03.950Z,9.30
2022-11-10T01:05:31.357Z,9.30
2022-11-10T01:07:59.453Z,9.30
2022-11-10T01:10:26.768Z,9.20
2022-11-10T01:12:53.778Z,9.20
2022-11-10T01:15:25.967Z,9.20
2022-11-10T01:17:56.042Z,9.20
2022-11-10T01:20:23.392Z,9.20
2022-11-10T01:22:50.011Z,9.10
2022-11-10T01:25:16.669Z,9.10
2022-11-10T01:27:43.316Z,9.10
2022-11-10T01:30:10.483Z,9.10
2022-11-10T01:32:37.120Z,9.20
2022-11-10T01:35:04.293Z,9.10
2022-11-10T01:37:30.884Z,9.10
2022-11-10T01:39:57.501Z,9.10
2022-11-10T01:42:29.711Z,9.10
2022-11-10T01:45:33.342Z,9.00
2022-11-10T01:48:05.380Z,9.00
2022-11-10T01:50:37.078Z,9.00
2022-11-10T01:53:07.106Z,9.00
2022-11-10T01:55:35.537Z,9.00
2022-11-10T01:58:03.818Z,9.00
2022-11-10T02:00:30.540Z,9.00
2022-11-10T02:03:13.459Z,9.00
2022-11-10T02:05:40.322Z,9.00
2022-11-10T02:08:07.106Z,9.10
2022-11-10T02:10:33.717Z,9.10
2022-11-10T02:13:00.417Z,9.10
2022-11-10T02:15:27.107Z,9.10
2022-11-10T02:17:53.708Z,9.10
2022-11-10T02:20:21.650Z,9.10
2022-11-10T02:22:48.645Z,9.00
2022-11-10T02:25:19.719Z,9.00
2022-11-10T02:27:46.428Z,9.00
2022-11-10T02:30:13.868Z,9.00
2022-11-10T02:32:40.498Z,9.00
2022-11-10T02:35:07.498Z,9.00
2022-11-10T02:37:34.166Z,9.00
2022-11-10T02:40:00.826Z,8.70
2022-11-10T02:42:27.452Z,9.00
2022-11-10T02:44:54.184Z,9.00
2022-11-10T02:47:20.798Z,9.00
2022-11-10T02:49:47.464Z,9.00
2022-11-10T02:52:14.075Z,9.00
2022-11-10T02:54:40.648Z,9.00
2022-11-10T02:57:07.251Z,9.00
2022-11-10T02:59:33.849Z,9.00
2022-11-10T03:02:00.468Z,9.00
2022-11-10T03:04:27.043Z,9.00
2022-11-10T03:06:53.689Z,9.10
2022-11-10T03:09:20.767Z,9.10
2022-11-10T03:11:47.339Z,9.10
2022-11-10T03:14:13.914Z,9.10
2022-11-10T03:16:40.504Z,9.10
2022-11-10T03:19:07.141Z,9.10
2022-11-10T03:21:33.735Z,9.10
2022-11-10T03:24:00.383Z,9.10
2022-11-10T03:26:26.978Z,9.10
2022-11-10T03:28:53.601Z,9.10
2022-11-10T03:31:20.313Z,9.10
2022-11-10T03:33:46.988Z,9.10
2022-11-10T03:36:13.656Z,9.10
2022-11-10T03:38:40.298Z,9.10
2022-11-10T03:41:22.310Z,9.10
2022-11-10T03:43:49.200Z,9.10
2022-11-10T03:46:16.503Z,9.10
2022-11-10T03:48:45.371Z,9.10
2022-11-10T03:51:15.486Z,9.10
2022-11-10T03:53:42.138Z,9.10
2022-11-10T03:56:08.884Z,9.10
2022-11-10T03:58:35.456Z,9.00
2022-11-10T04:01:02.327Z,9.00
2022-11-10T04:03:28.965Z,9.00
2022-11-10T04:06:14.194Z,9.00
2022-11-10T04:08:59.176Z,9.00
2022-11-10T04:11:48.587Z,9.00
2022-11-10T04:14:34.382Z,9.00
2022-11-10T04:17:01.759Z,9.00
2022-11-10T04:19:28.924Z,9.00
2022-11-10T04:21:55.808Z,9.00
2022-11-10T04:24:22.688Z,9.00
2022-11-10T04:26:49.580Z,9.00
2022-11-10T04:29:18.584Z,9.00
2022-11-10T04:31:45.397Z,9.00
2022-11-10T04:34:14.257Z,8.90
2022-11-10T04:36:42.781Z,9.00
2022-11-10T04:39:10.779Z,8.90
2022-11-10T04:41:37.756Z,8.90
2022-11-10T04:44:04.553Z,9.00
2022-11-10T04:46:34.557Z,9.00
2022-11-10T04:49:02.254Z,9.00
2022-11-10T04:51:31.989Z,9.00
2022-11-10T04:53:59.133Z,9.00
2022-11-10T04:56:27.053Z,9.00
2022-11-10T04:58:55.468Z,9.00
2022-11-10T05:01:24.908Z,9.00
2022-11-10T05:03:52.413Z,9.00
2022-11-10T05:06:19.337Z,9.00
2022-11-10T05:08:47.214Z,9.00
2022-11-10T05:11:14.391Z,9.10
2022-11-10T05:13:42.038Z,9.10
2022-11-10T05:16:12.130Z,9.20
2022-11-10T05:18:39.109Z,9.20
2022-11-10T05:21:05.893Z,9.20
2022-11-10T05:23:38.606Z,9.20
2022-11-10T05:26:07.993Z,9.20
2022-11-10T05:28:34.884Z,9.20
2022-11-10T05:31:01.877Z,9.30
2022-11-10T05:33:28.494Z,9.30
2022-11-10T05:35:55.112Z,9.30
2022-11-10T05:38:22.152Z,9.30
2022-11-10T05:40:48.844Z,9.40
2022-11-10T05:43:15.553Z,9.40
2022-11-10T05:45:42.915Z,9.40
2022-11-10T05:48:09.554Z,9.30
2022-11-10T05:50:36.128Z,9.40
2022-11-10T05:53:02.871Z,9.30
2022-11-10T05:55:29.796Z,9.30
2022-11-10T05:57:57.457Z,9.30
2022-11-10T06:00:27.344Z,9.30
2022-11-10T06:02:58.920Z,9.30
2022-11-10T06:05:30.905Z,9.30
2022-11-10T06:07:58.764Z,9.30
2022-11-10T06:10:25.929Z,9.30
2022-11-10T06:12:52.841Z,9.30
2022-11-10T06:15:20.304Z,9.30
2022-11-10T06:17:47.363Z,9.30
2022-11-10T06:20:15.157Z,9.30
2022-11-10T06:22:41.928Z,9.30
2022-11-10T06:25:09.314Z,9.40
2022-11-10T06:27:36.245Z,9.30
2022-11-10T06:30:04.138Z,9.30
2022-11-10T06:32:30.824Z,9.40
2022-11-10T06:35:00.483Z,9.30
2022-11-10T06:37:27.534Z,9.40
2022-11-10T06:39:54.136Z,9.30
2022-11-10T06:42:20.823Z,9.40
2022-11-10T06:44:47.408Z,9.30
2022-11-10T06:47:16.862Z,9.30
2022-11-10T06:49:43.589Z,9.30
2022-11-10T06:52:10.181Z,9.30
2022-11-10T06:54:36.799Z,9.30
2022-11-10T06:57:03.453Z,9.30
2022-11-10T06:59:30.021Z,9.30
2022-11-10T07:01:56.597Z,9.30
2022-11-10T07:04:23.248Z,9.30
2022-11-10T07:06:49.897Z,9.30
2022-11-10T07:09:16.565Z,9.30
2022-11-10T07:11:43.357Z,9.30
2022-11-10T07:14:10.525Z,9.40
2022-11-10T07:16:37.160Z,9.40
2022-11-10T07:19:03.822Z,9.40
2022-11-10T07:21:30.437Z,9.50
2022-11-10T07:23:57.070Z,9.50
2022-11-10T07:26:23.708Z,9.50
2022-11-10T07:28:50.474Z,9.60
2022-11-10T07:31:17.081Z,9.60
2022-11-10T07:33:44.072Z,9.70
2022-11-10T07:36:10.764Z,10.00
2022-11-10T07:38:37.437Z,10.30
2022-11-10T07:41:04.087Z,10.60
2022-11-10T07:43:30.688Z,10.90
2022-11-10T07:45:57.602Z,11.10
2022-11-10T07:48:24.201Z,11.20
2022-11-10T07:50:51.336Z,11.50
2022-11-10T07:53:20.522Z,11.50
2022-11-10T07:55:47.691Z,11.80
2022-11-10T07:58:16.412Z,12.00
2022-11-10T08:00:44.408Z,11.60
2022-11-10T08:03:19.710Z,11.50
2022-11-10T08:05:46.652Z,11.40
2022-11-10T08:08:13.472Z,11.30
2022-11-10T08:10:41.493Z,11.10
2022-11-10T08:13:11.060Z,10.80
2022-11-10T08:15:38.144Z,10.70
2022-11-10T08:18:16.255Z,10.60
2022-11-10T08:20:42.990Z,10.50
2022-11-10T08:23:09.840Z,10.60
2022-11-10T08:25:37.748Z,10.70
2022-11-10T08:28:10.245Z,10.60
2022-11-10T08:30:39.848Z,10.70
2022-11-10T08:33:09.401Z,10.70
2022-11-10T08:35:41.364Z,10.80
2022-11-10T08:38:19.219Z,10.90
2022-11-10T08:40:46.198Z,11.10
2022-11-10T08:43:14.220Z,11.40
2022-11-10T08:45:42.604Z,11.50
2022-11-10T08:48:18.552Z,11.80
2022-11-10T08:50:45.920Z,12.00
2022-11-10T08:53:16.019Z,12.10
2022-11-10T08:55:45.941Z,12.30
2022-11-10T08:58:19.146Z,12.40
2022-11-10T09:00:45.889Z,12.20
2022-11-10T09:03:15.187Z,12.30
2022-11-10T09:05:42.794Z,12.40
2022-11-10T09:08:10.278Z,12.50
2022-11-10T09:10:39.524Z,12.50
2022-11-10T09:13:06.964Z,12.80
2022-11-10T09:15:34.635Z,12.70
2022-11-10T09:18:03.095Z,12.70
2022-11-10T09:20:31.720Z,12.80
2022-11-10T09:23:09.693Z,13.10
2022-11-10T09:25:36.657Z,13.20
2022-11-10T09:28:03.518Z,13.30
2022-11-10T09:30:30.969Z,13.30
2022-11-10T09:32:59.738Z,13.50
2022-11-10T09:35:27.370Z,13.50
2022-11-10T09:37:54.004Z,13.60
2022-11-10T09:40:24.890Z,13.80
2022-11-10T09:42:56.161Z,14.20
2022-11-10T09:45:35.087Z,13.90
2022-11-10T09:48:12.173Z,13.80
2022-11-10T09:51:06.448Z,14.20
2022-11-10T09:53:53.713Z,14.10
2022-11-10T09:56:33.074Z,14.10
2022-11-10T09:59:00.279Z,14.10
2022-11-10T10:01:34.747Z,14.30
2022-11-10T10:04:37.010Z,14.10
2022-11-10T10:07:15.471Z,14.10
2022-11-10T10:10:02.990Z,14.20
2022-11-10T10:13:00.517Z,14.20
2022-11-10T10:15:38.987Z,14.30
2022-11-10T10:18:21.541Z,14.20
2022-11-10T10:21:21.142Z,14.10
2022-11-10T10:24:12.779Z,14.20
2022-11-10T10:26:45.149Z,14.40
2022-11-10T10:29:19.429Z,14.90
2022-11-10T10:31:52.926Z,14.80
2022-11-10T10:34:34.458Z,14.40
2022-11-10T10:37:01.235Z,14.10
2022-11-10T10:39:56.932Z,13.80
2022-11-10T10:42:31.118Z,13.70
2022-11-10T10:45:13.446Z,13.90
2022-11-10T10:47:40.664Z,13.90
2022-11-10T10:50:23.912Z,14.00
2022-11-10T10:53:09.351Z,14.10
2022-11-10T10:55:37.058Z,14.00
2022-11-10T10:58:41.788Z,13.90
2022-11-10T11:01:14.453Z,13.90
2022-11-10T11:03:47.190Z,14.00
2022-11-10T11:06:16.899Z,13.90
2022-11-10T11:09:07.703Z,13.80
2022-11-10T11:11:37.254Z,13.80
2022-11-10T11:14:25.019Z,13.70
2022-11-10T11:17:02.016Z,13.80
2022-11-10T11:19:35.767Z,13.80
2022-11-10T11:22:40.220Z,13.90
2022-11-10T11:25:28.081Z,13.80
2022-11-10T11:28:27.820Z,13.90
2022-11-10T11:31:13.430Z,13.80
2022-11-10T11:34:17.538Z,13.90
2022-11-10T11:37:19.270Z,14.00
2022-11-10T11:40:04.187Z,14.20
2022-11-10T11:42:56.409Z,14.10
2022-11-10T11:45:31.603Z,14.20
2022-11-10T11:48:13.249Z,14.20
2022-11-10T11:50:55.987Z,14.20
2022-11-10T11:53:43.903Z,14.10
2022-11-10T11:56:14.078Z,14.10
2022-11-10T11:58:43.881Z,14.00
2022-11-10T12:01:13.303Z,13.90
2022-11-10T12:04:13.526Z,14.00
2022-11-10T12:06:58.326Z,14.00
2022-11-10T12:09:39.706Z,13.90
2022-11-10T12:12:31.167Z,14.10
2022-11-10T12:15:15.917Z,14.20
2022-11-10T12:18:05.714Z,14.20
2022-11-10T12:20:47.358Z,14.20
2022-11-10T12:23:14.282Z,14.20
2022-11-10T12:25:55.904Z,14.30
2022-11-10T12:28:31.192Z,14.30
2022-11-10T12:31:02.370Z,14.30
2022-11-10T12:33:46.725Z,14.40
2022-11-10T12:36:16.518Z,14.30
2022-11-10T12:38:59.516Z,14.30
2022-11-10T12:41:32.724Z,14.30
2022-11-10T12:44:12.098Z,14.30
2022-11-10T12:46:41.537Z,14.30
2022-11-10T12:49:22.412Z,14.30
2022-11-10T12:52:34.927Z,14.30
2022-11-10T12:55:01.728Z,14.30
2022-11-10T12:57:29.799Z,14.30
2022-11-10T13:00:27.713Z,14.30
2022-11-10T13:02:56.124Z,14.30
2022-11-10T13:05:28.411Z,14.40
2022-11-10T13:08:27.556Z,14.30
2022-11-10T13:10:57.338Z,14.30
2022-11-10T13:13:24.677Z,14.30
2022-11-10T13:15:56.615Z,14.40
2022-11-10T13:18:46.110Z,14.40
2022-11-10T13:21:12.736Z,14.40
2022-11-10T13:23:48.586Z,14.40
2022-11-10T13:26:39.581Z,14.40
2022-11-10T13:29:53.753Z,14.40
2022-11-10T13:32:30.650Z,14.40
2022-11-10T13:35:28.362Z,14.40
2022-11-10T13:37:56.354Z,14.40
2022-11-10T13:40:25.935Z,14.30
2022-11-10T13:42:58.613Z,14.20
2022-11-10T13:45:43.344Z,14.20
2022-11-10T13:48:12.819Z,14.20
2022-11-10T13:51:00.250Z,14.20
2022-11-10T13:53:41.932Z,14.20
2022-11-10T13:56:11.343Z,14.10
2022-11-10T13:58:43.432Z,14.10
2022-11-10T14:01:19.167Z,14.10
2022-11-10T14:03:45.882Z,14.10
2022-11-10T14:06:20.388Z,14.00
2022-11-10T14:09:04.497Z,14.00
2022-11-10T14:11:38.945Z,14.00
2022-11-10T14:14:32.945Z,13.90
2022-11-10T14:17:00.145Z,13.80
2022-11-10T14:19:39.624Z,13.80
2022-11-10T14:22:47.325Z,13.80
2022-11-10T14:25:38.074Z,13.70
2022-11-10T14:28:28.055Z,13.70
2022-11-10T14:30:55.880Z,13.70
2022-11-10T14:33:24.937Z,13.70
2022-11-10T14:36:00.277Z,13.70
2022-11-10T14:38:37.109Z,13.70
2022-11-10T14:41:05.977Z,13.70
2022-11-10T14:43:35.135Z,13.70
2022-11-10T14:46:03.438Z,13.80
2022-11-10T14:48:32.849Z,13.70
2022-11-10T14:51:19.452Z,13.80
2022-11-10T14:53:48.871Z,13.70
2022-11-10T14:56:26.565Z,13.70
2022-11-10T14:58:54.333Z,13.70
2022-11-10T15:01:33.699Z,13.70
2022-11-10T15:04:07.774Z,13.70
2022-11-10T15:06:34.926Z,13.70
2022-11-10T15:09:13.836Z,13.70
2022-11-10T15:11:49.178Z,13.60
2022-11-10T15:14:34.146Z,13.60
2022-11-10T15:17:01.955Z,13.60
2022-11-10T15:19:30.908Z,13.60
2022-11-10T15:22:06.516Z,13.50
2022-11-10T15:24:33.160Z,13.60
2022-11-10T15:27:00.664Z,13.60
2022-11-10T15:29:29.291Z,13.60
2022-11-10T15:31:55.912Z,13.60
2022-11-10T15:34:41.351Z,13.60
2022-11-10T15:37:20.373Z,13.60
2022-11-10T15:39:47.249Z,13.50
2022-11-10T15:42:17.361Z,13.50
2022-11-10T15:44:47.648Z,13.50
2022-11-10T15:47:16.473Z,13.50
2022-11-10T15:49:43.956Z,13.60
2022-11-10T15:52:13.684Z,13.60
2022-11-10T15:54:40.525Z,13.50
2022-11-10T15:57:15.473Z,13.60
2022-11-10T15:59:42.845Z,13.50
2022-11-10T16:02:24.612Z,13.50
2022-11-10T16:04:58.554Z,13.60
2022-11-10T16:07:26.579Z,13.50
2022-11-10T16:09:53.158Z,13.50
2022-11-10T16:12:22.287Z,13.50
2022-11-10T16:14:53.601Z,13.50
2022-11-10T16:17:22.184Z,13.50
2022-11-10T16:19:48.793Z,13.50
2022-11-10T16:22:15.468Z,13.50
2022-11-10T16:24:42.244Z,13.40
2022-11-10T16:27:14.084Z,13.40
2022-11-10T16:29:42.424Z,13.40
2022-11-10T16:32:11.450Z,13.40
2022-11-10T16:34:38.057Z,13.40
2022-11-10T16:37:04.818Z,13.40
2022-11-10T16:39:31.967Z,13.40
2022-11-10T16:41:58.586Z,13.40
2022-11-10T16:44:25.668Z,13.40
2022-11-10T16:46:56.657Z,13.40
2022-11-10T16:49:35.102Z,13.30
2022-11-10T16:52:15.497Z,13.40
2022-11-10T16:54:42.234Z,13.30
2022-11-10T16:57:16.805Z,13.30
2022-11-10T16:59:45.550Z,13.30
2022-11-10T17:02:22.801Z,13.30
2022-11-10T17:04:49.465Z,13.30
2022-11-10T17:07:19.885Z,13.20
2022-11-10T17:09:46.530Z,13.20
2022-11-10T17:12:14.529Z,13.20
2022-11-10T17:14:41.157Z,13.20
2022-11-10T17:17:15.309Z,13.20
2022-11-10T17:19:42.620Z,13.20
2022-11-10T17:22:16.650Z,13.20
2022-11-10T17:24:43.739Z,13.20
2022-11-10T17:27:10.638Z,13.20
2022-11-10T17:29:37.215Z,13.10
2022-11-10T17:32:04.074Z,13.10
2022-11-10T17:34:30.661Z,13.00
2022-11-10T17:36:57.285Z,13.10
2022-11-10T17:39:23.888Z,12.90
2022-11-10T17:41:51.444Z,12.90
2022-11-10T17:44:18.109Z,12.90
2022-11-10T17:46:44.997Z,12.80
2022-11-10T17:49:11.651Z,12.70
2022-11-10T17:51:38.566Z,12.70
2022-11-10T17:54:06.065Z,12.70
2022-11-10T17:56:33.114Z,12.60
2022-11-10T17:59:00.028Z,12.60
2022-11-10T18:01:26.714Z,12.50
2022-11-10T18:03:53.398Z,12.50
2022-11-10T18:06:20.997Z,12.50
2022-11-10T18:08:48.089Z,12.50
2022-11-10T18:11:16.839Z,12.50
2022-11-10T18:13:44.573Z,12.50
2022-11-10T18:16:13.902Z,12.40
2022-11-10T18:18:41.209Z,12.50
2022-11-10T18:21:09.451Z,12.50
2022-11-10T18:23:36.111Z,12.50
2022-11-10T18:26:04.879Z,12.40
2022-11-10T18:28:31.526Z,12.30
2022-11-10T18:30:58.187Z,12.40
2022-11-10T18:33:25.126Z,12.30
2022-11-10T18:35:52.287Z,12.30
2022-11-10T18:38:18.914Z,12.30
2022-11-10T18:40:45.600Z,12.20
2022-11-10T18:43:12.203Z,12.20
2022-11-10T18:45:38.993Z,12.20
2022-11-10T18:48:06.018Z,12.20
2022-11-10T18:50:32.673Z,12.00
2022-11-10T18:52:59.527Z,12.10
2022-11-10T18:55:26.535Z,12.10
2022-11-10T18:57:53.188Z,12.00
2022-11-10T19:00:20.233Z,12.00
2022-11-10T19:02:47.247Z,12.00
2022-11-10T19:05:13.879Z,12.00
2022-11-10T19:07:40.610Z,11.90
2022-11-10T19:10:07.727Z,12.20
2022-11-10T19:12:36.624Z,11.90
2022-11-10T19:15:03.726Z,11.80
2022-11-10T19:17:30.353Z,11.80
2022-11-10T19:19:57.093Z,11.80
2022-11-10T19:22:23.830Z,11.80
2022-11-10T19:27:37.237Z,11.70
2022-11-10T19:30:04.315Z,11.80
2022-11-10T19:32:31.055Z,11.70
2022-11-10T19:34:58.471Z,11.50
2022-11-10T19:37:25.048Z,11.60
2022-11-10T19:39:51.878Z,11.50
2022-11-10T19:42:18.522Z,11.50
2022-11-10T19:44:45.179Z,11.50
2022-11-10T19:47:11.805Z,11.50
2022-11-10T19:49:38.679Z,11.50
2022-11-10T19:52:05.312Z,11.50
2022-11-10T19:54:31.973Z,11.40
2022-11-10T19:56:58.585Z,11.40
2022-11-10T19:59:25.269Z,11.40
2022-11-10T20:01:52.105Z,11.40
2022-11-10T20:04:18.822Z,11.40
2022-11-10T20:06:45.521Z,11.40
2022-11-10T20:09:12.210Z,11.40
2022-11-10T20:11:38.814Z,11.40
2022-11-10T20:14:06.839Z,11.30
2022-11-10T20:16:33.517Z,11.30
2022-11-10T20:19:00.144Z,11.20
2022-11-10T20:21:26.799Z,11.20
2022-11-10T20:23:54.927Z,11.20
2022-11-10T20:26:22.397Z,11.20
2022-11-10T20:28:49.947Z,11.20
2022-11-10T20:31:20.563Z,11.20
2022-11-10T20:33:48.661Z,11.10
2022-11-10T20:36:20.527Z,11.10
2022-11-10T20:38:48.797Z,11.10
2022-11-10T20:41:21.688Z,11.00
2022-11-10T20:43:48.752Z,11.10
2022-11-10T20:46:40.383Z,11.10
2022-11-10T20:49:04.920Z,11.00
2022-11-10T20:51:31.595Z,11.10
2022-11-10T20:54:01.314Z,11.00
2022-11-10T20:56:29.890Z,11.00
2022-11-10T20:58:57.656Z,11.00
2022-11-10T21:01:24.692Z,10.90
2022-11-10T21:03:51.706Z,10.90
2022-11-10T21:06:18.596Z,10.90
2022-11-10T21:08:45.311Z,10.80
2022-11-10T21:11:32.647Z,10.80
2022-11-10T21:13:59.721Z,10.80
2022-11-10T21:16:26.308Z,10.80
2022-11-10T21:18:56.208Z,10.80
2022-11-10T21:21:27.702Z,10.80
2022-11-10T21:23:57.161Z,10.80
2022-11-10T21:26:24.124Z,10.70
2022-11-10T21:28:50.727Z,10.70
2022-11-10T21:31:18.383Z,10.70
2022-11-10T21:33:45.268Z,10.70
2022-11-10T21:36:11.996Z,11.10
2022-11-10T21:38:38.694Z,10.70
2022-11-10T21:41:05.523Z,10.60
2022-11-10T21:43:32.185Z,10.60
2022-11-10T21:46:03.964Z,10.60
2022-11-10T21:48:30.588Z,10.60
2022-11-10T21:51:01.564Z,10.60
2022-11-10T21:53:28.470Z,10.60
2022-11-10T21:56:03.053Z,11.10
2022-11-10T21:58:29.805Z,10.60
2022-11-10T22:01:04.757Z,10.50
2022-11-10T22:03:32.685Z,10.50
2022-11-10T22:06:10.573Z,10.50
2022-11-10T22:08:38.144Z,10.50
2022-11-10T22:11:24.070Z,10.50
2022-11-10T22:14:09.499Z,10.40
2022-11-10T22:17:03.972Z,10.50
2022-11-10T22:19:31.955Z,10.40
2022-11-10T22:22:03.471Z,10.50
2022-11-10T22:24:30.697Z,10.50
2022-11-10T22:26:59.687Z,10.40
2022-11-10T22:29:31.736Z,10.40
2022-11-10T22:32:02.539Z,10.40
2022-11-10T22:34:29.483Z,10.50
2022-11-10T22:36:56.221Z,10.50
2022-11-10T22:39:22.944Z,10.40
2022-11-10T22:42:08.435Z,10.40
2022-11-10T22:44:35.978Z,10.30
2022-11-10T22:47:02.580Z,10.40
2022-11-10T22:49:29.223Z,10.40
2022-11-10T22:51:55.811Z,10.40
2022-11-10T22:54:23.493Z,10.30
2022-11-10T22:56:51.192Z,10.40
2022-11-10T22:59:18.915Z,10.40
2022-11-10T23:01:45.723Z,10.40
2022-11-10T23:04:12.840Z,10.30
2022-11-10T23:06:39.722Z,10.30
2022-11-10T23:09:06.657Z,10.30
2022-11-10T23:11:34.191Z,10.30
2022-11-10T23:14:00.857Z,10.30
2022-11-10T23:16:29.851Z,10.30
2022-11-10T23:18:57.893Z,10.20
2022-11-10T23:21:28.163Z,10.20
2022-11-10T23:23:55.487Z,10.20
2022-11-10T23:26:34.607Z,10.20
2022-11-10T23:29:01.203Z,10.70
2022-11-10T23:31:28.431Z,10.10
2022-11-10T23:33:56.558Z,10.10
2022-11-10T23:36:24.673Z,10.10
2022-11-10T23:38:51.793Z,10.00
2022-11-10T23:41:20.639Z,10.00
2022-11-10T23:43:47.675Z,10.00
2022-11-10T23:46:14.520Z,10.00
2022-11-10T23:48:42.514Z,10.00
2022-11-10T23:51:11.779Z,10.00
2022-11-10T23:53:38.541Z,10.00
2022-11-10T23:56:08.658Z,9.90
2022-11-10T23:58:35.260Z,9.90
